sensor_id;sensor_type;location;lat;lon;timestamp;temperature;humidity
59007;DHT22;44792;52.760;6.726;2022-08-11T00:01:50;18.90;99.90
59007;DHT22;44792;52.760;6.726;2022-08-11T00:04:20;18.90;99.90
59007;DHT22;44792;52.760;6.726;2022-08-11T00:06:47;18.80;99.90
59007;DHT22;44792;52.760;6.726;2022-08-11T00:09:17;18.80;99.90
59007;DHT22;44792;52.760;6.726;2022-08-11T00:11:48;18.80;99.90
59007;DHT22;44792;52.760;6.726;2022-08-11T00:14:32;18.80;99.90
59007;DHT22;44792;52.760;6.726;2022-08-11T00:17:04;18.70;99.90
59007;DHT22;44792;52.760;6.726;2022-08-11T00:19:36;18.70;99.90
59007;DHT22;44792;52.760;6.726;2022-08-11T00:22:04;18.70;99.90
59007;DHT22;44792;52.760;6.726;2022-08-11T00:24:34;18.70;99.90
59007;DHT22;44792;52.760;6.726;2022-08-11T00:27:01;18.60;99.90
59007;DHT22;44792;52.760;6.726;2022-08-11T00:29:27;18.60;99.90
59007;DHT22;44792;52.760;6.726;2022-08-11T00:31:55;18.60;99.90
59007;DHT22;44792;52.760;6.726;2022-08-11T00:34:24;18.50;99.90
59007;DHT22;44792;52.760;6.726;2022-08-11T00:36:59;18.50;99.90
59007;DHT22;44792;52.760;6.726;2022-08-11T00:39:25;18.50;99.90
59007;DHT22;44792;52.760;6.726;2022-08-11T00:42:22;18.50;99.90
59007;DHT22;44792;52.760;6.726;2022-08-11T00:48:00;18.50;99.90
59007;DHT22;44792;52.760;6.726;2022-08-11T00:53:32;18.50;99.90
59007;DHT22;44792;52.760;6.726;2022-08-11T01:01:53;18.50;99.90
59007;DHT22;44792;52.760;6.726;2022-08-11T01:07:26;18.50;99.90
59007;DHT22;44792;52.760;6.726;2022-08-11T01:13:58;18.40;99.90
59007;DHT22;44792;52.760;6.726;2022-08-11T01:19:51;18.50;99.90
59007;DHT22;44792;52.760;6.726;2022-08-11T01:23:13;18.40;99.90
59007;DHT22;44792;52.760;6.726;2022-08-11T01:37:29;18.30;99.90
59007;DHT22;44792;52.760;6.726;2022-08-11T01:49:01;18.10;99.90
59007;DHT22;44792;52.760;6.726;2022-08-11T01:54:43;18.10;99.90
59007;DHT22;44792;52.760;6.726;2022-08-11T01:59:53;18.10;99.90
59007;DHT22;44792;52.760;6.726;2022-08-11T02:02:42;18.10;99.90
59007;DHT22;44792;52.760;6.726;2022-08-11T02:05:35;17.90;99.90
59007;DHT22;44792;52.760;6.726;2022-08-11T02:14:27;17.70;99.90
59007;DHT22;44792;52.760;6.726;2022-08-11T02:17:17;17.70;99.90
59007;DHT22;44792;52.760;6.726;2022-08-11T02:20:06;17.70;99.90
59007;DHT22;44792;52.760;6.726;2022-08-11T02:23:16;17.70;99.90
59007;DHT22;44792;52.760;6.726;2022-08-11T02:26:02;17.70;99.90
59007;DHT22;44792;52.760;6.726;2022-08-11T02:28:56;17.60;99.90
59007;DHT22;44792;52.760;6.726;2022-08-11T02:34:58;17.60;99.90
59007;DHT22;44792;52.760;6.726;2022-08-11T02:37:48;17.60;99.90
59007;DHT22;44792;52.760;6.726;2022-08-11T02:40:27;17.50;99.90
59007;DHT22;44792;52.760;6.726;2022-08-11T02:43:22;17.40;99.90
59007;DHT22;44792;52.760;6.726;2022-08-11T02:48:52;17.40;99.90
59007;DHT22;44792;52.760;6.726;2022-08-11T02:54:44;17.30;99.90
59007;DHT22;44792;52.760;6.726;2022-08-11T02:57:14;17.40;99.90
59007;DHT22;44792;52.760;6.726;2022-08-11T02:59:50;17.40;99.90
59007;DHT22;44792;52.760;6.726;2022-08-11T03:08:02;17.20;99.90
59007;DHT22;44792;52.760;6.726;2022-08-11T03:13:28;17.20;99.90
59007;DHT22;44792;52.760;6.726;2022-08-11T03:16:31;17.20;99.90
59007;DHT22;44792;52.760;6.726;2022-08-11T03:21:55;17.10;99.90
59007;DHT22;44792;52.760;6.726;2022-08-11T03:24:52;17.20;99.90
59007;DHT22;44792;52.760;6.726;2022-08-11T03:27:28;17.10;99.90
59007;DHT22;44792;52.760;6.726;2022-08-11T03:32:45;17.10;99.90
59007;DHT22;44792;52.760;6.726;2022-08-11T03:35:39;17.20;99.90
59007;DHT22;44792;52.760;6.726;2022-08-11T03:38:11;17.10;99.90
59007;DHT22;44792;52.760;6.726;2022-08-11T03:40:58;17.20;99.90
59007;DHT22;44792;52.760;6.726;2022-08-11T03:43:51;17.20;99.90
59007;DHT22;44792;52.760;6.726;2022-08-11T03:46:42;17.30;99.90
59007;DHT22;44792;52.760;6.726;2022-08-11T03:52:22;17.20;99.90
59007;DHT22;44792;52.760;6.726;2022-08-11T04:14:35;17.20;99.90
59007;DHT22;44792;52.760;6.726;2022-08-11T04:23:38;16.90;99.90
59007;DHT22;44792;52.760;6.726;2022-08-11T04:29:20;16.80;99.90
59007;DHT22;44792;52.760;6.726;2022-08-11T04:37:42;16.60;99.90
59007;DHT22;44792;52.760;6.726;2022-08-11T04:40:33;16.70;99.90
59007;DHT22;44792;52.760;6.726;2022-08-11T04:46:14;16.60;99.90
59007;DHT22;44792;52.760;6.726;2022-08-11T04:52:48;16.70;99.90
59007;DHT22;44792;52.760;6.726;2022-08-11T04:56:05;16.70;99.90
59007;DHT22;44792;52.760;6.726;2022-08-11T05:05:08;16.80;99.90
59007;DHT22;44792;52.760;6.726;2022-08-11T05:13:47;17.00;99.90
59007;DHT22;44792;52.760;6.726;2022-08-11T05:16:40;17.10;99.90
59007;DHT22;44792;52.760;6.726;2022-08-11T05:19:25;17.20;99.90
59007;DHT22;44792;52.760;6.726;2022-08-11T05:22:11;17.40;99.90
59007;DHT22;44792;52.760;6.726;2022-08-11T05:25:11;17.50;99.90
59007;DHT22;44792;52.760;6.726;2022-08-11T05:28:09;17.70;99.90
59007;DHT22;44792;52.760;6.726;2022-08-11T05:30:59;17.80;99.90
59007;DHT22;44792;52.760;6.726;2022-08-11T05:33:48;18.00;99.90
59007;DHT22;44792;52.760;6.726;2022-08-11T05:36:45;18.10;99.90
59007;DHT22;44792;52.760;6.726;2022-08-11T05:39:15;18.20;99.90
59007;DHT22;44792;52.760;6.726;2022-08-11T05:42:01;18.30;99.90
59007;DHT22;44792;52.760;6.726;2022-08-11T05:44:48;18.40;99.90
59007;DHT22;44792;52.760;6.726;2022-08-11T05:47:33;18.60;99.90
59007;DHT22;44792;52.760;6.726;2022-08-11T05:50:21;18.60;99.90
59007;DHT22;44792;52.760;6.726;2022-08-11T05:53:09;18.70;99.90
59007;DHT22;44792;52.760;6.726;2022-08-11T05:55:54;18.80;99.90
59007;DHT22;44792;52.760;6.726;2022-08-11T05:58:41;18.90;99.90
59007;DHT22;44792;52.760;6.726;2022-08-11T06:01:12;19.00;99.90
59007;DHT22;44792;52.760;6.726;2022-08-11T06:03:42;19.10;99.90
59007;DHT22;44792;52.760;6.726;2022-08-11T06:06:28;19.10;99.90
59007;DHT22;44792;52.760;6.726;2022-08-11T06:08:56;19.10;99.90
59007;DHT22;44792;52.760;6.726;2022-08-11T06:11:24;19.30;99.90
59007;DHT22;44792;52.760;6.726;2022-08-11T06:13:50;19.40;99.90
59007;DHT22;44792;52.760;6.726;2022-08-11T06:16:22;19.50;99.90
59007;DHT22;44792;52.760;6.726;2022-08-11T06:18:49;19.40;99.90
59007;DHT22;44792;52.760;6.726;2022-08-11T06:21:15;19.40;99.90
59007;DHT22;44792;52.760;6.726;2022-08-11T06:23:42;19.60;99.90
59007;DHT22;44792;52.760;6.726;2022-08-11T06:26:13;19.70;99.90
59007;DHT22;44792;52.760;6.726;2022-08-11T06:28:40;19.80;99.90
59007;DHT22;44792;52.760;6.726;2022-08-11T06:31:17;19.90;99.90
59007;DHT22;44792;52.760;6.726;2022-08-11T06:33:55;19.90;99.90
59007;DHT22;44792;52.760;6.726;2022-08-11T06:36:37;20.00;99.90
59007;DHT22;44792;52.760;6.726;2022-08-11T06:39:19;20.10;99.90
59007;DHT22;44792;52.760;6.726;2022-08-11T06:42:04;20.10;99.90
59007;DHT22;44792;52.760;6.726;2022-08-11T06:44:38;20.20;99.90
59007;DHT22;44792;52.760;6.726;2022-08-11T06:47:12;20.30;99.90
59007;DHT22;44792;52.760;6.726;2022-08-11T06:49:45;20.40;99.90
59007;DHT22;44792;52.760;6.726;2022-08-11T06:52:35;20.50;99.90
59007;DHT22;44792;52.760;6.726;2022-08-11T06:55:11;20.60;99.90
59007;DHT22;44792;52.760;6.726;2022-08-11T06:57:38;20.70;99.90
59007;DHT22;44792;52.760;6.726;2022-08-11T07:00:24;20.70;99.90
59007;DHT22;44792;52.760;6.726;2022-08-11T07:03:07;20.70;99.90
59007;DHT22;44792;52.760;6.726;2022-08-11T07:05:53;20.90;99.90
59007;DHT22;44792;52.760;6.726;2022-08-11T07:09:14;21.10;99.90
59007;DHT22;44792;52.760;6.726;2022-08-11T07:12:00;21.20;99.90
59007;DHT22;44792;52.760;6.726;2022-08-11T07:14:49;21.30;99.90
59007;DHT22;44792;52.760;6.726;2022-08-11T07:17:40;21.40;99.90
59007;DHT22;44792;52.760;6.726;2022-08-11T07:20:08;21.50;99.90
59007;DHT22;44792;52.760;6.726;2022-08-11T07:22:58;21.60;99.90
59007;DHT22;44792;52.760;6.726;2022-08-11T07:25:48;21.70;99.90
59007;DHT22;44792;52.760;6.726;2022-08-11T07:28:39;21.90;99.90
59007;DHT22;44792;52.760;6.726;2022-08-11T07:31:32;22.10;99.90
59007;DHT22;44792;52.760;6.726;2022-08-11T07:36:46;22.30;99.90
59007;DHT22;44792;52.760;6.726;2022-08-11T07:39:22;22.40;99.90
59007;DHT22;44792;52.760;6.726;2022-08-11T07:41:50;22.40;99.90
59007;DHT22;44792;52.760;6.726;2022-08-11T07:44:17;22.50;99.90
59007;DHT22;44792;52.760;6.726;2022-08-11T07:46:45;22.50;99.90
59007;DHT22;44792;52.760;6.726;2022-08-11T07:49:34;22.80;99.90
59007;DHT22;44792;52.760;6.726;2022-08-11T07:52:19;23.00;99.90
59007;DHT22;44792;52.760;6.726;2022-08-11T07:54:56;23.00;99.90
59007;DHT22;44792;52.760;6.726;2022-08-11T07:57:23;23.20;99.90
59007;DHT22;44792;52.760;6.726;2022-08-11T08:00:08;23.20;99.90
59007;DHT22;44792;52.760;6.726;2022-08-11T08:02:52;23.30;99.90
59007;DHT22;44792;52.760;6.726;2022-08-11T08:05:37;23.30;99.90
59007;DHT22;44792;52.760;6.726;2022-08-11T08:08:22;23.40;99.90
59007;DHT22;44792;52.760;6.726;2022-08-11T08:11:07;23.60;99.90
59007;DHT22;44792;52.760;6.726;2022-08-11T08:13:52;23.70;99.90
59007;DHT22;44792;52.760;6.726;2022-08-11T08:16:38;23.80;99.90
59007;DHT22;44792;52.760;6.726;2022-08-11T08:19:22;23.80;99.90
59007;DHT22;44792;52.760;6.726;2022-08-11T08:21:49;23.90;99.90
59007;DHT22;44792;52.760;6.726;2022-08-11T08:24:15;24.10;99.90
59007;DHT22;44792;52.760;6.726;2022-08-11T08:26:44;24.10;99.90
59007;DHT22;44792;52.760;6.726;2022-08-11T08:29:33;24.20;99.90
59007;DHT22;44792;52.760;6.726;2022-08-11T08:32:18;24.30;99.90
59007;DHT22;44792;52.760;6.726;2022-08-11T08:34:45;24.50;99.90
59007;DHT22;44792;52.760;6.726;2022-08-11T08:37:12;24.50;99.90
59007;DHT22;44792;52.760;6.726;2022-08-11T08:39:38;24.60;99.90
59007;DHT22;44792;52.760;6.726;2022-08-11T08:42:12;24.90;99.90
59007;DHT22;44792;52.760;6.726;2022-08-11T08:44:45;24.90;99.90
59007;DHT22;44792;52.760;6.726;2022-08-11T08:47:14;25.00;99.90
59007;DHT22;44792;52.760;6.726;2022-08-11T08:49:45;25.10;99.90
59007;DHT22;44792;52.760;6.726;2022-08-11T08:52:15;25.10;99.90
59007;DHT22;44792;52.760;6.726;2022-08-11T08:54:43;25.20;99.90
59007;DHT22;44792;52.760;6.726;2022-08-11T08:57:11;25.30;99.90
59007;DHT22;44792;52.760;6.726;2022-08-11T08:59:43;25.60;98.40
59007;DHT22;44792;52.760;6.726;2022-08-11T09:02:10;25.50;98.10
59007;DHT22;44792;52.760;6.726;2022-08-11T09:04:38;25.60;98.80
59007;DHT22;44792;52.760;6.726;2022-08-11T09:07:13;25.70;97.70
59007;DHT22;44792;52.760;6.726;2022-08-11T09:09:43;25.70;97.60
59007;DHT22;44792;52.760;6.726;2022-08-11T09:12:11;25.70;98.00
59007;DHT22;44792;52.760;6.726;2022-08-11T09:14:39;25.80;97.50
59007;DHT22;44792;52.760;6.726;2022-08-11T09:17:29;26.00;97.40
59007;DHT22;44792;52.760;6.726;2022-08-11T09:22:37;26.20;96.40
59007;DHT22;44792;52.760;6.726;2022-08-11T09:25:25;26.20;96.50
59007;DHT22;44792;52.760;6.726;2022-08-11T09:28:11;26.30;94.90
59007;DHT22;44792;52.760;6.726;2022-08-11T09:30:40;26.30;95.20
59007;DHT22;44792;52.760;6.726;2022-08-11T09:33:08;26.40;94.90
59007;DHT22;44792;52.760;6.726;2022-08-11T09:35:35;26.30;95.00
59007;DHT22;44792;52.760;6.726;2022-08-11T09:38:04;26.40;95.60
59007;DHT22;44792;52.760;6.726;2022-08-11T09:40:49;26.40;93.50
59007;DHT22;44792;52.760;6.726;2022-08-11T09:43:17;26.50;94.10
59007;DHT22;44792;52.760;6.726;2022-08-11T09:46:03;26.50;94.30
59007;DHT22;44792;52.760;6.726;2022-08-11T09:48:37;26.60;94.00
59007;DHT22;44792;52.760;6.726;2022-08-11T09:51:05;26.70;92.60
59007;DHT22;44792;52.760;6.726;2022-08-11T09:53:35;26.70;93.20
59007;DHT22;44792;52.760;6.726;2022-08-11T09:56:02;26.80;92.90
59007;DHT22;44792;52.760;6.726;2022-08-11T09:58:49;26.80;92.90
59007;DHT22;44792;52.760;6.726;2022-08-11T10:01:19;26.90;91.30
59007;DHT22;44792;52.760;6.726;2022-08-11T10:04:07;26.90;91.80
59007;DHT22;44792;52.760;6.726;2022-08-11T10:06:36;26.90;91.90
59007;DHT22;44792;52.760;6.726;2022-08-11T10:09:23;27.00;91.10
59007;DHT22;44792;52.760;6.726;2022-08-11T10:11:52;27.00;91.50
59007;DHT22;44792;52.760;6.726;2022-08-11T10:14:19;27.10;91.20
59007;DHT22;44792;52.760;6.726;2022-08-11T10:17:07;27.10;90.70
59007;DHT22;44792;52.760;6.726;2022-08-11T10:19:34;27.20;91.00
59007;DHT22;44792;52.760;6.726;2022-08-11T10:22:03;27.20;90.40
59007;DHT22;44792;52.760;6.726;2022-08-11T10:24:48;27.40;90.80
59007;DHT22;44792;52.760;6.726;2022-08-11T10:27:33;27.30;90.00
59007;DHT22;44792;52.760;6.726;2022-08-11T10:29:59;27.40;89.00
59007;DHT22;44792;52.760;6.726;2022-08-11T10:32:43;27.40;88.80
59007;DHT22;44792;52.760;6.726;2022-08-11T10:35:30;27.40;88.70
59007;DHT22;44792;52.760;6.726;2022-08-11T10:37:57;27.50;88.90
59007;DHT22;44792;52.760;6.726;2022-08-11T10:40:24;27.60;89.70
59007;DHT22;44792;52.760;6.726;2022-08-11T10:42:57;27.60;87.30
59007;DHT22;44792;52.760;6.726;2022-08-11T10:45:39;27.60;87.40
59007;DHT22;44792;52.760;6.726;2022-08-11T10:48:29;27.70;87.50
59007;DHT22;44792;52.760;6.726;2022-08-11T10:50:55;27.60;85.20
59007;DHT22;44792;52.760;6.726;2022-08-11T10:53:47;27.60;83.80
59007;DHT22;44792;52.760;6.726;2022-08-11T10:56:35;27.60;86.70
59007;DHT22;44792;52.760;6.726;2022-08-11T10:59:23;27.80;86.50
59007;DHT22;44792;52.760;6.726;2022-08-11T11:01:52;27.90;85.00
59007;DHT22;44792;52.760;6.726;2022-08-11T11:04:52;28.00;86.20
59007;DHT22;44792;52.760;6.726;2022-08-11T11:07:23;28.30;85.20
59007;DHT22;44792;52.760;6.726;2022-08-11T11:10:00;28.30;85.50
59007;DHT22;44792;52.760;6.726;2022-08-11T11:12:39;28.40;84.00
59007;DHT22;44792;52.760;6.726;2022-08-11T11:15:26;28.40;83.80
59007;DHT22;44792;52.760;6.726;2022-08-11T11:18:18;28.50;83.40
59007;DHT22;44792;52.760;6.726;2022-08-11T11:20:54;28.40;80.00
59007;DHT22;44792;52.760;6.726;2022-08-11T11:26:18;28.60;79.00
59007;DHT22;44792;52.760;6.726;2022-08-11T11:29:04;28.50;79.40
59007;DHT22;44792;52.760;6.726;2022-08-11T11:50:28;28.80;79.10
59007;DHT22;44792;52.760;6.726;2022-08-11T11:52:55;28.80;78.30
59007;DHT22;44792;52.760;6.726;2022-08-11T11:55:23;28.80;78.40
59007;DHT22;44792;52.760;6.726;2022-08-11T11:57:52;28.70;77.10
59007;DHT22;44792;52.760;6.726;2022-08-11T12:00:39;28.70;77.80
59007;DHT22;44792;52.760;6.726;2022-08-11T12:03:23;28.70;78.20
59007;DHT22;44792;52.760;6.726;2022-08-11T12:05:51;28.80;78.50
59007;DHT22;44792;52.760;6.726;2022-08-11T12:08:19;28.80;78.70
59007;DHT22;44792;52.760;6.726;2022-08-11T12:10:55;29.00;77.20
59007;DHT22;44792;52.760;6.726;2022-08-11T12:13:42;28.90;76.10
59007;DHT22;44792;52.760;6.726;2022-08-11T12:16:12;28.90;76.50
59007;DHT22;44792;52.760;6.726;2022-08-11T12:18:39;28.80;76.20
59007;DHT22;44792;52.760;6.726;2022-08-11T12:21:07;28.90;77.20
59007;DHT22;44792;52.760;6.726;2022-08-11T12:23:34;29.00;76.60
59007;DHT22;44792;52.760;6.726;2022-08-11T12:26:19;28.90;75.50
59007;DHT22;44792;52.760;6.726;2022-08-11T12:29:06;29.10;76.20
59007;DHT22;44792;52.760;6.726;2022-08-11T12:31:34;29.00;75.00
59007;DHT22;44792;52.760;6.726;2022-08-11T12:34:02;29.20;75.30
59007;DHT22;44792;52.760;6.726;2022-08-11T12:36:30;29.10;74.30
59007;DHT22;44792;52.760;6.726;2022-08-11T12:38:58;29.00;74.10
59007;DHT22;44792;52.760;6.726;2022-08-11T12:41:25;29.00;74.00
59007;DHT22;44792;52.760;6.726;2022-08-11T12:44:10;29.10;74.30
59007;DHT22;44792;52.760;6.726;2022-08-11T12:46:57;29.20;74.30
59007;DHT22;44792;52.760;6.726;2022-08-11T12:49:24;29.20;73.80
59007;DHT22;44792;52.760;6.726;2022-08-11T12:52:20;29.10;72.50
59007;DHT22;44792;52.760;6.726;2022-08-11T12:55:11;29.00;71.10
59007;DHT22;44792;52.760;6.726;2022-08-11T12:57:44;29.00;72.20
59007;DHT22;44792;52.760;6.726;2022-08-11T13:00:44;29.00;71.70
59007;DHT22;44792;52.760;6.726;2022-08-11T13:03:29;29.00;71.60
59007;DHT22;44792;52.760;6.726;2022-08-11T13:06:14;29.00;70.70
59007;DHT22;44792;52.760;6.726;2022-08-11T13:08:41;28.90;70.90
59007;DHT22;44792;52.760;6.726;2022-08-11T13:11:09;28.90;70.90
59007;DHT22;44792;52.760;6.726;2022-08-11T13:13:53;28.80;68.90
59007;DHT22;44792;52.760;6.726;2022-08-11T13:16:29;29.00;70.00
59007;DHT22;44792;52.760;6.726;2022-08-11T13:18:57;29.20;68.80
59007;DHT22;44792;52.760;6.726;2022-08-11T13:21:25;29.20;67.10
59007;DHT22;44792;52.760;6.726;2022-08-11T13:23:53;29.30;68.70
59007;DHT22;44792;52.760;6.726;2022-08-11T13:26:22;29.20;68.20
59007;DHT22;44792;52.760;6.726;2022-08-11T13:28:48;29.40;68.20
59007;DHT22;44792;52.760;6.726;2022-08-11T13:31:16;29.20;67.30
59007;DHT22;44792;52.760;6.726;2022-08-11T13:33:47;29.30;67.10
59007;DHT22;44792;52.760;6.726;2022-08-11T13:36:19;29.30;66.90
59007;DHT22;44792;52.760;6.726;2022-08-11T13:38:45;29.20;66.40
59007;DHT22;44792;52.760;6.726;2022-08-11T13:41:11;29.10;67.30
59007;DHT22;44792;52.760;6.726;2022-08-11T13:43:56;29.20;67.40
59007;DHT22;44792;52.760;6.726;2022-08-11T13:46:22;29.30;67.30
59007;DHT22;44792;52.760;6.726;2022-08-11T13:48:53;29.30;66.30
59007;DHT22;44792;52.760;6.726;2022-08-11T13:51:20;29.20;66.30
59007;DHT22;44792;52.760;6.726;2022-08-11T13:56:37;29.50;66.80
59007;DHT22;44792;52.760;6.726;2022-08-11T13:59:05;29.40;67.10
59007;DHT22;44792;52.760;6.726;2022-08-11T14:01:39;29.30;67.00
59007;DHT22;44792;52.760;6.726;2022-08-11T14:04:11;29.40;66.00
59007;DHT22;44792;52.760;6.726;2022-08-11T14:06:48;29.40;66.10
59007;DHT22;44792;52.760;6.726;2022-08-11T14:09:19;29.30;64.90
59007;DHT22;44792;52.760;6.726;2022-08-11T14:11:47;29.40;66.20
59007;DHT22;44792;52.760;6.726;2022-08-11T14:14:33;29.40;66.50
59007;DHT22;44792;52.760;6.726;2022-08-11T14:17:05;29.40;65.50
59007;DHT22;44792;52.760;6.726;2022-08-11T14:19:35;29.40;65.30
59007;DHT22;44792;52.760;6.726;2022-08-11T14:22:04;29.40;65.90
59007;DHT22;44792;52.760;6.726;2022-08-11T14:24:40;29.40;65.90
59007;DHT22;44792;52.760;6.726;2022-08-11T14:27:09;29.60;65.40
59007;DHT22;44792;52.760;6.726;2022-08-11T14:29:37;29.70;65.40
59007;DHT22;44792;52.760;6.726;2022-08-11T14:32:05;29.70;65.50
59007;DHT22;44792;52.760;6.726;2022-08-11T14:34:32;29.60;64.70
59007;DHT22;44792;52.760;6.726;2022-08-11T14:37:13;29.50;64.20
59007;DHT22;44792;52.760;6.726;2022-08-11T14:39:42;29.50;64.50
59007;DHT22;44792;52.760;6.726;2022-08-11T14:42:09;29.60;65.30
59007;DHT22;44792;52.760;6.726;2022-08-11T14:44:57;29.60;65.30
59007;DHT22;44792;52.760;6.726;2022-08-11T14:47:50;29.40;64.80
59007;DHT22;44792;52.760;6.726;2022-08-11T14:50:20;29.60;63.80
59007;DHT22;44792;52.760;6.726;2022-08-11T14:52:58;29.60;64.30
59007;DHT22;44792;52.760;6.726;2022-08-11T14:55:26;29.50;63.90
59007;DHT22;44792;52.760;6.726;2022-08-11T14:58:15;29.50;64.60
59007;DHT22;44792;52.760;6.726;2022-08-11T15:00:42;29.50;65.00
59007;DHT22;44792;52.760;6.726;2022-08-11T15:03:10;29.60;66.10
59007;DHT22;44792;52.760;6.726;2022-08-11T15:05:57;29.60;65.80
59007;DHT22;44792;52.760;6.726;2022-08-11T15:08:30;29.60;64.70
59007;DHT22;44792;52.760;6.726;2022-08-11T15:11:17;29.40;66.40
59007;DHT22;44792;52.760;6.726;2022-08-11T15:14:05;29.40;65.80
59007;DHT22;44792;52.760;6.726;2022-08-11T15:16:31;29.40;66.80
59007;DHT22;44792;52.760;6.726;2022-08-11T15:19:16;29.40;66.90
59007;DHT22;44792;52.760;6.726;2022-08-11T15:21:46;29.30;67.40
59007;DHT22;44792;52.760;6.726;2022-08-11T15:24:30;29.30;67.80
59007;DHT22;44792;52.760;6.726;2022-08-11T15:26:59;29.30;67.90
59007;DHT22;44792;52.760;6.726;2022-08-11T15:29:47;29.30;66.60
59007;DHT22;44792;52.760;6.726;2022-08-11T15:32:33;29.40;66.70
59007;DHT22;44792;52.760;6.726;2022-08-11T15:35:19;29.40;66.50
59007;DHT22;44792;52.760;6.726;2022-08-11T15:38:03;29.30;67.00
59007;DHT22;44792;52.760;6.726;2022-08-11T15:40:34;29.30;68.00
59007;DHT22;44792;52.760;6.726;2022-08-11T15:43:40;29.30;67.90
59007;DHT22;44792;52.760;6.726;2022-08-11T15:46:31;29.30;67.60
59007;DHT22;44792;52.760;6.726;2022-08-11T15:49:04;29.30;67.40
59007;DHT22;44792;52.760;6.726;2022-08-11T15:51:35;29.20;67.60
59007;DHT22;44792;52.760;6.726;2022-08-11T15:54:11;29.20;67.60
59007;DHT22;44792;52.760;6.726;2022-08-11T15:56:41;29.20;68.20
59007;DHT22;44792;52.760;6.726;2022-08-11T15:59:10;29.20;67.10
59007;DHT22;44792;52.760;6.726;2022-08-11T16:01:57;29.20;68.00
59007;DHT22;44792;52.760;6.726;2022-08-11T16:04:43;29.30;67.20
59007;DHT22;44792;52.760;6.726;2022-08-11T16:07:13;29.30;66.80
59007;DHT22;44792;52.760;6.726;2022-08-11T16:12:34;29.30;67.30
59007;DHT22;44792;52.760;6.726;2022-08-11T16:15:04;29.30;67.40
59007;DHT22;44792;52.760;6.726;2022-08-11T16:17:52;29.20;66.90
59007;DHT22;44792;52.760;6.726;2022-08-11T16:20:23;29.10;67.60
59007;DHT22;44792;52.760;6.726;2022-08-11T16:22:51;29.10;67.30
59007;DHT22;44792;52.760;6.726;2022-08-11T16:25:21;29.20;68.00
59007;DHT22;44792;52.760;6.726;2022-08-11T16:27:51;29.20;68.20
59007;DHT22;44792;52.760;6.726;2022-08-11T16:30:18;29.10;68.80
59007;DHT22;44792;52.760;6.726;2022-08-11T16:32:46;29.10;69.10
59007;DHT22;44792;52.760;6.726;2022-08-11T16:35:18;29.10;69.30
59007;DHT22;44792;52.760;6.726;2022-08-11T16:38:18;29.10;69.90
59007;DHT22;44792;52.760;6.726;2022-08-11T16:41:12;29.10;69.30
59007;DHT22;44792;52.760;6.726;2022-08-11T16:43:43;29.00;68.80
59007;DHT22;44792;52.760;6.726;2022-08-11T16:46:29;29.00;69.00
59007;DHT22;44792;52.760;6.726;2022-08-11T16:49:21;29.00;69.60
59007;DHT22;44792;52.760;6.726;2022-08-11T16:51:49;28.90;69.20
59007;DHT22;44792;52.760;6.726;2022-08-11T16:54:15;28.90;69.50
59007;DHT22;44792;52.760;6.726;2022-08-11T16:56:46;28.80;69.60
59007;DHT22;44792;52.760;6.726;2022-08-11T16:59:35;28.80;69.50
59007;DHT22;44792;52.760;6.726;2022-08-11T17:02:06;28.80;69.70
59007;DHT22;44792;52.760;6.726;2022-08-11T17:07:47;28.70;70.20
59007;DHT22;44792;52.760;6.726;2022-08-11T17:10:40;28.60;70.10
59007;DHT22;44792;52.760;6.726;2022-08-11T17:13:32;28.60;70.70
59007;DHT22;44792;52.760;6.726;2022-08-11T17:16:01;28.60;70.50
59007;DHT22;44792;52.760;6.726;2022-08-11T17:21:05;28.50;70.60
59007;DHT22;44792;52.760;6.726;2022-08-11T17:23:34;28.50;70.60
59007;DHT22;44792;52.760;6.726;2022-08-11T17:28:47;28.40;70.30
59007;DHT22;44792;52.760;6.726;2022-08-11T17:31:19;28.30;70.50
59007;DHT22;44792;52.760;6.726;2022-08-11T17:34:05;28.30;70.80
59007;DHT22;44792;52.760;6.726;2022-08-11T17:36:52;28.30;70.80
59007;DHT22;44792;52.760;6.726;2022-08-11T17:39:19;28.20;70.70
59007;DHT22;44792;52.760;6.726;2022-08-11T17:41:45;28.20;70.80
59007;DHT22;44792;52.760;6.726;2022-08-11T17:44:31;28.20;71.00
59007;DHT22;44792;52.760;6.726;2022-08-11T17:47:16;28.10;71.00
59007;DHT22;44792;52.760;6.726;2022-08-11T17:50:02;28.10;71.20
59007;DHT22;44792;52.760;6.726;2022-08-11T17:52:28;28.00;71.30
59007;DHT22;44792;52.760;6.726;2022-08-11T17:55:14;28.00;71.30
59007;DHT22;44792;52.760;6.726;2022-08-11T17:57:59;27.90;71.30
59007;DHT22;44792;52.760;6.726;2022-08-11T18:00:44;27.90;70.20
59007;DHT22;44792;52.760;6.726;2022-08-11T18:03:10;27.90;70.70
59007;DHT22;44792;52.760;6.726;2022-08-11T18:05:57;27.80;70.80
59007;DHT22;44792;52.760;6.726;2022-08-11T18:08:23;27.80;70.60
59007;DHT22;44792;52.760;6.726;2022-08-11T18:11:09;27.70;70.40
59007;DHT22;44792;52.760;6.726;2022-08-11T18:13:56;27.60;70.30
59007;DHT22;44792;52.760;6.726;2022-08-11T18:16:40;27.60;70.10
59007;DHT22;44792;52.760;6.726;2022-08-11T18:19:25;27.50;70.40
59007;DHT22;44792;52.760;6.726;2022-08-11T18:22:18;27.50;70.70
59007;DHT22;44792;52.760;6.726;2022-08-11T18:25:11;27.40;70.90
59007;DHT22;44792;52.760;6.726;2022-08-11T18:27:57;27.40;71.40
59007;DHT22;44792;52.760;6.726;2022-08-11T18:30:45;27.30;71.50
59007;DHT22;44792;52.760;6.726;2022-08-11T18:33:47;27.20;71.60
59007;DHT22;44792;52.760;6.726;2022-08-11T18:36:37;27.20;71.90
59007;DHT22;44792;52.760;6.726;2022-08-11T18:39:22;27.10;72.00
59007;DHT22;44792;52.760;6.726;2022-08-11T18:42:13;27.10;72.50
59007;DHT22;44792;52.760;6.726;2022-08-11T18:45:09;27.00;74.00
59007;DHT22;44792;52.760;6.726;2022-08-11T18:48:00;26.90;74.10
59007;DHT22;44792;52.760;6.726;2022-08-11T18:50:46;26.70;75.00
59007;DHT22;44792;52.760;6.726;2022-08-11T18:53:33;26.60;76.00
59007;DHT22;44792;52.760;6.726;2022-08-11T18:56:20;26.50;76.30
59007;DHT22;44792;52.760;6.726;2022-08-11T18:59:06;26.50;77.30
59007;DHT22;44792;52.760;6.726;2022-08-11T19:01:55;26.40;78.20
59007;DHT22;44792;52.760;6.726;2022-08-11T19:04:40;26.30;78.40
59007;DHT22;44792;52.760;6.726;2022-08-11T19:07:25;26.30;78.90
59007;DHT22;44792;52.760;6.726;2022-08-11T19:10:11;26.20;79.50
59007;DHT22;44792;52.760;6.726;2022-08-11T19:12:56;26.20;79.90
59007;DHT22;44792;52.760;6.726;2022-08-11T19:15:41;26.10;80.70
59007;DHT22;44792;52.760;6.726;2022-08-11T19:18:27;26.00;81.00
59007;DHT22;44792;52.760;6.726;2022-08-11T19:21:13;25.90;81.30
59007;DHT22;44792;52.760;6.726;2022-08-11T19:24:00;25.90;81.80
59007;DHT22;44792;52.760;6.726;2022-08-11T19:26:46;25.80;82.60
59007;DHT22;44792;52.760;6.726;2022-08-11T19:29:33;25.70;82.20
59007;DHT22;44792;52.760;6.726;2022-08-11T19:32:19;25.60;83.00
59007;DHT22;44792;52.760;6.726;2022-08-11T19:35:04;25.60;83.70
59007;DHT22;44792;52.760;6.726;2022-08-11T19:37:50;25.40;84.60